x

Northern Hawaii One - 245nm Ne Of Honolulu Hi (51000) Wave Buoy

1:50pm - Thu 18th Sep 2014 All times are HST. -10 hours from GMT.

  • Sig Wave height 5.6ft
  • Peak Period 12s
  • Average Period 7s
  • Wind
    11mph, 20mph gusts
  • Sea Temp 78°f
  • Air Temp 75°f
  • Sea Pressure 1016.3mb
  • Northern Hawaii One - 245nm Ne Of Honolulu Hi
  • Northern Hawaii One - 245nm Ne Of Honolulu Hi

More Historic Weather Station data

Upgrade to MSW Pro to gain access to the past 30 days of data for over 8000 Wavebouys and Weather Stations around the globe.

Join Pro

Comparision Forecast

View Surf forecast
   
Thu 09/18 1:50pm 5.5ft 12s 7s 11 20 mph 1016.3mb 78f 75f
12:50pm 6ft 8s 7s 11 13 mph 1016.7mb 78f 76f
11:50am 6ft 14s 7s 9 13 mph 1017.2mb 78f 74f
10:50am 6.5ft 15s 7s 9 13 mph 1017.7mb 78f 74f
9:50am 6ft 15s 6s 20 25 mph 1017.8mb 78f 72f
8:50am 6.5ft 15s 7s 20 25 mph 1017.6mb 78f 74f
7:50am 7ft 9s 7s 2 7 mph 1017.5mb 77f 73f
6:50am  -   -   -  9 11 mph 1017.1mb 78f 74f
5:50am 7ft 15s 8s 13 18 mph 1016.5mb 78f 75f
4:50am 6.5ft 15s 8s 11 13 mph 1016mb 78f 75f
3:50am 7ft 11s 8s 11 13 mph 1015.6mb 78f 75f
2:50am 7ft 10s 8s 9 11 mph 1015.4mb 78f 76f
1:50am 7ft 10s 8s 9 11 mph 1015.6mb 78f 76f
12:50am 7ft 15s 8s 7 9 mph 1015.9mb 78f 76f
Wed 09/17 11:50pm 7.5ft 11s 8s 9 13 mph 1016.2mb 78f 76f
10:50pm 7.5ft 11s 8s 9 13 mph 1016.5mb 78f 76f
9:50pm 8ft 9s 8s 11 13 mph 1016.5mb 78f 76f
8:50pm 7.5ft 10s 8s 11 16 mph 1016.5mb 78f 76f
7:50pm 7.5ft 11s 8s 11 16 mph 1016.1mb 78f 76f
6:50pm 7.5ft 11s 8s 11 16 mph 1015.6mb 79f 76f
5:50pm 8.5ft 11s 8s 11 13 mph 1015.1mb 79f 76f
4:50pm 8ft 11s 9s 11 13 mph 1014.8mb 79f 76f
3:50pm 8ft 11s 8s 9 13 mph 1014.4mb 79f 76f
2:50pm 8.5ft 10s 8s 11 13 mph 1014.3mb 79f 76f
1:50pm 8.5ft 11s 9s 9 13 mph 1014.3mb 79f 76f
12:50pm 8ft 11s 8s 9 11 mph 1014.6mb 79f 76f
11:50am 7.5ft 10s 8s 9 11 mph 1014.8mb 79f 76f
10:50am 8ft 11s 8s 9 13 mph 1015.1mb 78f 76f
9:50am 7.5ft 11s 8s 9 11 mph 1015.1mb 78f 75f
8:50am 7.5ft 9s 7s 9 11 mph 1015mb 78f 74f
7:50am 8.5ft 10s 8s 7 11 mph 1014.6mb 78f 75f
6:50am 8.5ft 11s 8s 7 11 mph 1014.1mb 78f 75f
5:50am 10ft 10s 8s 7 9 mph 1013.7mb 78f 74f
4:50am 8.5ft 10s 8s 9 13 mph 1013.3mb 78f 74f
3:50am 8.5ft 10s 8s 11 16 mph 1012.9mb 78f 75f
2:50am 9ft 11s 8s 9 16 mph 1012.8mb 78f 76f
1:50am 9ft 10s 8s 7 11 mph 1013mb 78f 75f
12:50am 10ft 11s 8s 9 11 mph 1013.2mb 78f 75f
Tue 09/16 11:50pm 10ft 11s 8s 9 13 mph 1013.4mb 78f 75f
10:50pm 9.5ft 10s 8s 11 13 mph 1013.7mb 78f 76f
9:50pm 10ft 10s 8s 11 13 mph 1013.8mb 78f 75f
8:50pm 9.5ft 10s 8s 11 16 mph 1013.6mb 78f 75f
7:50pm 10ft 10s 8s 13 18 mph 1013.2mb 78f 75f
6:50pm 10ft 10s 8s 13 18 mph 1012.7mb 78f 76f
5:50pm 9.5ft 10s 8s 16 20 mph 1012.2mb 79f 76f
4:50pm 10.5ft 11s 8s 16 18 mph 1011.7mb 79f 76f
3:50pm 11ft 10s 8s 16 20 mph 1011.3mb 78f 76f
2:50pm 9.5ft 11s 8s 16 20 mph 1011.2mb 78f 76f
1:50pm 9ft 10s 8s 18 20 mph 1011.4mb 78f 76f
12:50pm 10ft 10s 8s 13 18 mph 1011.7mb 78f 76f
11:50am 9ft 10s 8s 16 20 mph 1012.1mb 78f 76f
10:50am 9ft 10s 8s 16 20 mph 1012.3mb 78f 76f
9:50am 9.5ft 10s 8s 9 13 mph 1012.6mb 78f 76f
8:50am  -   -   -  13 16 mph 1012.5mb 77f 74f
7:50am 9ft 10s 7s 11 16 mph 1012.2mb 77f 74f
6:50am 9ft 16s 7s 16 20 mph 1011.8mb 77f 75f
5:50am 9ft 10s 7s 13 18 mph 1011.3mb 77f 75f
4:50am 9ft 17s 8s 18 20 mph 1010.8mb 78f 76f
3:50am  -   -   -  11 13 mph 1010.8mb 78f 74f
2:50am  -   -   -  22 25 mph 1010.3mb 78f 74f
1:50am 8.5ft 17s 8s 13 16 mph 1010.6mb 78f 76f
12:50am 9ft 17s 8s 11 16 mph 1010.8mb 78f 76f
Mon 09/15 11:50pm 8ft 17s 7s 13 16 mph 1011mb 78f 76f
10:50pm 7ft 17s 7s 16 18 mph 1011.2mb 78f 77f
9:50pm  -   -   -  18 20 mph 1011.5mb 78f 77f
8:50pm 6ft 11s 7s 11 13 mph 1011.6mb 78f 77f
7:50pm 7ft 17s 8s 11 16 mph 1011.2mb 79f 77f
6:50pm 6.5ft 17s 7s 13 18 mph 1010.4mb 79f 77f
5:50pm 5.5ft 17s 7s 13 16 mph 1009.9mb 79f 78f
4:50pm 6ft 17s 7s 13 16 mph 1009.4mb 79f 78f
3:50pm  -   -   -  9
mph
1009.3mb - 77f
2:50pm 6ft 17s 8s 7 16 mph 1009.3mb 79f 77f
1:50pm 6ft 17s 7s 9 11 mph 1009.5mb 79f 77f
12:50pm 6.5ft 17s 9s 11 13 mph 1009.9mb 79f 76f
11:50am 5.5ft 19s 7s 4 7 mph 1010.6mb 79f 73f
10:50am  -   -   -  11 13 mph 1010.5mb 79f 77f
9:50am 5ft 19s 8s 9 13 mph 1010.6mb 78f 77f
7:50am 6ft 19s 9s 9 13 mph 1010.2mb 78f 77f
6:50am 6ft 19s 8s 7
mph
1009.9mb - 76f
5:50am  -   -   -  7 16 mph 1010mb 78f 75f
4:50am 6ft 19s 8s 9 13 mph 1009.6mb 78f 77f
3:50am 5ft 19s 7s 9 11 mph 1008.8mb 78f 77f
2:50am  -   -   -  7 9 mph 1008.6mb 78f 77f
1:50am 5.5ft 19s 8s 9 13 mph 1008.8mb 78f 77f